Forside
METAR-TAF:

METAR-TAF

Lufthavne :

Łódź, Polen

Breddekreds: 51-43-19N, længdekreds: 019-23-53E, højde: 184 m

Aktuelle vejr

Denne rapport blev lavet for 39 minutter siden, kl. 01:00 UTC
Vind 1 kt fra varierende retninger
Temperatur 10°C
Fugtighed 93%
Tryk 1024 hPa
Sigt 10 km eller mere
Brudte skyer i en højde af 3200 ft

METAR: EPLL 130100Z VRB01KT 9999 BKN032 10/09 Q1024

Tid: 03:39 (01:39 UTC)

Vejrudsigter

Denne rapport blev lavet for 2 timer og 9 minutter siden, kl. 23:30 UTC
Foreløbig gælder fra 13 på 00 UTC til 13 på 24 UTC
Vind 8 kt fra sydvest
Sigt 10 km eller mere
Brudte skyer i en højde af 3500 ft
Midlertidig
fra 13 på 09 UTC til 13 på 15 UTC
Vind 15 kt fra vest med vindstød på up til 26 kt

TAF: EPLL 122330Z 1300/1324 23008KT 9999 BKN035 TEMPO 1309/1315 28015G26KT

Vejrobservationer og prognoser fra mere end 4000 lufthavne (METAR og TAF).

De gule og røde prikker repræsenterer de meteorologiske stationer.

Flyt musen over at se navnet på stationen.

Så klik over at se vejr observationer og prognoser.

At skifte det kort: Klik på de grønne knapper med et sort kors for at zoome ind; på den grønne knap med en bindestreg for at zoome ud; eller på de grønne pile for tilstødende kort.


METAR-TAF: